createdAt,value
2023-05-10T00:00:02.548Z,8.77
2023-05-10T00:02:28.895Z,9.30
2023-05-10T00:04:55.240Z,9.37
2023-05-10T00:07:21.526Z,8.90
2023-05-10T00:09:48.451Z,9.17
2023-05-10T00:12:14.731Z,10.03
2023-05-10T00:14:40.924Z,9.87
2023-05-10T00:17:07.390Z,9.47
2023-05-10T00:19:33.721Z,10.30
2023-05-10T00:21:59.987Z,9.80
2023-05-10T00:24:26.224Z,10.27
2023-05-10T00:26:53.243Z,10.23
2023-05-10T00:29:19.935Z,10.50
2023-05-10T00:31:46.213Z,10.93
2023-05-10T00:34:12.565Z,10.90
2023-05-10T00:36:38.850Z,10.30
2023-05-10T00:39:05.497Z,10.63
2023-05-10T00:41:32.879Z,11.27
2023-05-10T00:44:01.196Z,10.93
2023-05-10T00:46:28.015Z,10.70
2023-05-10T00:48:54.510Z,11.13
2023-05-10T00:51:20.919Z,11.10
2023-05-10T00:53:47.174Z,11.13
2023-05-10T00:56:13.656Z,11.00
2023-05-10T00:58:40.038Z,11.20
2023-05-10T01:01:07.215Z,11.03
2023-05-10T01:03:33.479Z,11.17
2023-05-10T01:05:59.826Z,10.70
2023-05-10T01:08:26.823Z,10.97
2023-05-10T01:10:53.185Z,11.07
2023-05-10T01:13:30.299Z,10.70
2023-05-10T01:15:56.936Z,8.53
2023-05-10T01:18:24.012Z,7.30
2023-05-10T01:20:57.312Z,7.13
2023-05-10T01:23:40.151Z,6.53
2023-05-10T01:26:18.970Z,6.97
2023-05-10T01:29:04.911Z,7.57
2023-05-10T01:31:40.221Z,7.23
2023-05-10T01:34:09.434Z,6.80
2023-05-10T01:36:40.643Z,7.23
2023-05-10T01:39:11.445Z,7.47
2023-05-10T01:41:42.403Z,7.50
2023-05-10T01:44:14.205Z,7.17
2023-05-10T01:46:41.194Z,6.67
2023-05-10T01:49:10.704Z,6.60
2023-05-10T01:51:40.388Z,7.27
2023-05-10T01:54:06.709Z,6.80
2023-05-10T01:56:33.927Z,7.50
2023-05-10T01:59:01.146Z,7.50
2023-05-10T02:01:27.677Z,7.87
2023-05-10T02:03:54.961Z,7.83
2023-05-10T02:06:22.920Z,7.33
2023-05-10T02:08:50.602Z,8.00
2023-05-10T02:11:18.599Z,8.03
2023-05-10T02:13:47.695Z,7.73
2023-05-10T02:16:14.106Z,8.20
2023-05-10T02:18:41.960Z,7.93
2023-05-10T02:21:09.182Z,8.07
2023-05-10T02:23:37.173Z,8.10
2023-05-10T02:26:04.133Z,9.07
2023-05-10T02:28:30.408Z,7.93
2023-05-10T02:30:56.917Z,8.50
2023-05-10T02:33:23.691Z,8.37
2023-05-10T02:35:51.318Z,8.50
2023-05-10T02:38:19.438Z,8.90
2023-05-10T02:40:47.157Z,8.13
2023-05-10T02:43:15.089Z,9.10
2023-05-10T02:45:43.353Z,8.63
2023-05-10T02:48:09.701Z,8.67
2023-05-10T02:50:36.524Z,8.77
2023-05-10T02:53:07.623Z,8.97
2023-05-10T02:55:37.095Z,9.40
2023-05-10T02:58:04.315Z,9.37
2023-05-10T03:00:30.552Z,10.70
2023-05-10T03:02:56.839Z,9.43
2023-05-10T03:05:23.594Z,9.60
2023-05-10T03:07:50.351Z,10.00
2023-05-10T03:10:16.741Z,10.00
2023-05-10T03:12:53.758Z,10.00
2023-05-10T03:15:28.531Z,9.70
2023-05-10T03:17:58.258Z,9.97
2023-05-10T03:20:26.908Z,9.30
2023-05-10T03:22:56.244Z,9.10
2023-05-10T03:25:22.738Z,8.67
2023-05-10T03:27:49.271Z,8.63
2023-05-10T03:30:16.932Z,8.30
2023-05-10T03:32:44.062Z,8.93
2023-05-10T03:35:10.478Z,9.43
2023-05-10T03:37:36.653Z,8.63
2023-05-10T03:40:03.273Z,8.40
2023-05-10T03:42:30.518Z,8.33
2023-05-10T03:44:57.042Z,8.40
2023-05-10T03:47:23.333Z,8.50
2023-05-10T03:49:50.124Z,8.80
2023-05-10T03:52:16.357Z,8.37
2023-05-10T03:54:42.603Z,8.07
2023-05-10T03:57:09.786Z,8.40
2023-05-10T03:59:36.017Z,7.87
2023-05-10T04:02:02.400Z,8.47
2023-05-10T04:04:28.767Z,8.80
2023-05-10T04:06:55.741Z,8.83
2023-05-10T04:09:22.027Z,4.63
2023-05-10T04:11:48.239Z,9.80
2023-05-10T04:14:14.410Z,9.73
2023-05-10T04:16:40.673Z,8.87
2023-05-10T04:19:06.936Z,8.17
2023-05-10T04:21:33.188Z,9.37
2023-05-10T04:24:00.238Z,9.03
2023-05-10T04:26:26.387Z,9.50
2023-05-10T04:28:52.573Z,9.77
2023-05-10T04:31:18.823Z,10.37
2023-05-10T04:33:45.258Z,10.80
2023-05-10T04:36:11.615Z,11.50
2023-05-10T04:38:37.907Z,11.50
2023-05-10T04:41:05.972Z,12.00
2023-05-10T04:43:32.225Z,13.03
2023-05-10T04:45:58.456Z,12.20
2023-05-10T04:48:24.663Z,14.07
2023-05-10T04:50:50.929Z,14.27
2023-05-10T04:53:17.091Z,14.47
2023-05-10T04:55:43.345Z,14.53
2023-05-10T04:58:10.263Z,14.93
2023-05-10T05:00:36.427Z,14.67
2023-05-10T05:03:02.811Z,15.03
2023-05-10T05:05:29.060Z,16.60
2023-05-10T05:07:55.289Z,16.40
2023-05-10T05:10:21.483Z,16.07
2023-05-10T05:12:47.784Z,15.97
2023-05-10T05:15:16.731Z,16.87
2023-05-10T05:17:43.270Z,16.53
2023-05-10T05:20:10.628Z,17.13
2023-05-10T05:22:37.038Z,17.33
2023-05-10T05:25:03.890Z,17.50
2023-05-10T05:27:30.412Z,18.97
2023-05-10T05:29:57.238Z,19.07
2023-05-10T05:32:24.640Z,17.37
2023-05-10T05:34:50.998Z,17.47
2023-05-10T05:37:18.290Z,18.10
2023-05-10T05:39:44.782Z,17.70
2023-05-10T05:42:11.440Z,16.60
2023-05-10T05:44:37.847Z,16.97
2023-05-10T05:47:04.304Z,16.10
2023-05-10T05:49:31.158Z,15.53
2023-05-10T05:51:59.517Z,15.30
2023-05-10T05:54:25.664Z,15.13
2023-05-10T05:56:53.966Z,14.83
2023-05-10T05:59:20.509Z,15.23
2023-05-10T06:01:46.781Z,14.13
2023-05-10T06:04:13.211Z,14.43
2023-05-10T06:06:40.072Z,14.30
2023-05-10T06:09:06.238Z,13.50
2023-05-10T06:11:32.483Z,15.00
2023-05-10T06:13:58.674Z,14.53
2023-05-10T06:16:25.130Z,14.00
2023-05-10T06:18:51.598Z,15.47
2023-05-10T06:21:17.825Z,14.53
2023-05-10T06:23:44.687Z,14.63
2023-05-10T06:26:10.889Z,14.83
2023-05-10T06:28:38.585Z,13.63
2023-05-10T06:31:05.092Z,13.40
2023-05-10T06:33:31.646Z,13.87
2023-05-10T06:35:57.838Z,13.50
2023-05-10T06:38:24.031Z,13.97
2023-05-10T06:40:50.874Z,13.53
2023-05-10T06:43:17.229Z,13.00
2023-05-10T06:45:43.454Z,13.17
2023-05-10T06:48:09.716Z,12.20
2023-05-10T06:50:35.937Z,13.40
2023-05-10T06:53:02.467Z,13.03
2023-05-10T06:55:29.431Z,13.50
2023-05-10T06:57:56.449Z,12.97
2023-05-10T07:00:22.815Z,12.47
2023-05-10T07:02:49.158Z,14.50
2023-05-10T07:05:15.698Z,14.17
2023-05-10T07:07:43.042Z,14.67
2023-05-10T07:10:10.279Z,15.07
2023-05-10T07:12:36.659Z,15.70
2023-05-10T07:15:04.578Z,14.87
2023-05-10T07:17:31.171Z,15.13
2023-05-10T07:19:58.092Z,15.17
2023-05-10T07:22:24.354Z,14.37
2023-05-10T07:24:50.583Z,13.70
2023-05-10T07:27:17.460Z,13.93
2023-05-10T07:29:43.875Z,14.70
2023-05-10T07:32:10.780Z,14.23
2023-05-10T07:34:37.110Z,13.50
2023-05-10T07:37:03.493Z,14.17
2023-05-10T07:39:29.779Z,12.20
2023-05-10T07:41:56.868Z,13.00
2023-05-10T07:44:23.343Z,12.40
2023-05-10T07:46:50.045Z,12.40
2023-05-10T07:49:16.996Z,13.33
2023-05-10T07:51:43.376Z,12.93
2023-05-10T07:54:09.679Z,12.10
2023-05-10T07:56:36.380Z,11.57
2023-05-10T07:59:04.201Z,12.27
2023-05-10T08:01:31.979Z,11.27
2023-05-10T08:03:58.315Z,10.93
2023-05-10T08:06:26.732Z,11.60
2023-05-10T08:08:54.247Z,14.07
2023-05-10T08:11:21.373Z,15.47
2023-05-10T08:13:48.423Z,17.40
2023-05-10T08:16:14.824Z,18.40
2023-05-10T08:18:41.084Z,17.77
2023-05-10T08:21:07.547Z,18.53
2023-05-10T08:23:34.662Z,18.87
2023-05-10T08:26:01.048Z,20.27
2023-05-10T08:28:27.347Z,20.37
2023-05-10T08:30:53.687Z,22.23
2023-05-10T08:33:20.055Z,22.70
2023-05-10T08:35:46.350Z,23.50
2023-05-10T08:38:13.221Z,22.33
2023-05-10T08:40:42.345Z,22.03
2023-05-10T08:43:09.897Z,23.43
2023-05-10T08:45:38.586Z,22.40
2023-05-10T08:48:06.291Z,21.17
2023-05-10T08:50:32.980Z,23.53
2023-05-10T08:53:01.423Z,21.93
2023-05-10T08:55:27.950Z,22.03
2023-05-10T08:57:54.910Z,21.17
2023-05-10T09:00:23.672Z,20.83
2023-05-10T09:02:50.438Z,21.43
2023-05-10T09:05:18.084Z,21.60
2023-05-10T09:07:44.707Z,21.20
2023-05-10T09:10:11.617Z,19.90
2023-05-10T09:12:37.792Z,21.13
2023-05-10T09:15:06.820Z,21.67
2023-05-10T09:17:32.980Z,21.47
2023-05-10T09:19:59.589Z,20.97
2023-05-10T09:22:25.903Z,21.30
2023-05-10T09:25:04.692Z,21.13
2023-05-10T09:27:31.338Z,20.33
2023-05-10T09:29:57.711Z,19.53
2023-05-10T09:32:37.137Z,18.83
2023-05-10T09:35:09.830Z,18.63
2023-05-10T09:37:36.267Z,18.90
2023-05-10T09:40:06.360Z,17.87
2023-05-10T09:42:32.599Z,16.53
2023-05-10T09:45:02.111Z,17.53
2023-05-10T09:47:28.971Z,15.97
2023-05-10T09:49:57.986Z,16.47
2023-05-10T09:52:24.212Z,14.67
2023-05-10T09:54:54.215Z,14.93
2023-05-10T09:57:21.638Z,14.40
2023-05-10T09:59:48.332Z,15.07
2023-05-10T10:02:14.878Z,14.03
2023-05-10T10:04:42.859Z,13.93
2023-05-10T10:07:09.794Z,13.83
2023-05-10T10:09:36.102Z,13.53
2023-05-10T10:12:03.843Z,13.50
2023-05-10T10:14:30.670Z,14.40
2023-05-10T10:17:07.234Z,14.13
2023-05-10T10:19:35.845Z,13.97
2023-05-10T10:22:03.080Z,12.57
2023-05-10T10:24:29.665Z,13.10
2023-05-10T10:27:02.376Z,12.67
2023-05-10T10:29:33.604Z,12.27
2023-05-10T10:32:07.254Z,12.73
2023-05-10T10:34:33.676Z,12.27
2023-05-10T10:37:05.190Z,13.93
2023-05-10T10:39:31.652Z,13.63
2023-05-10T10:41:59.261Z,14.33
2023-05-10T10:44:38.186Z,14.03
2023-05-10T10:47:28.374Z,13.93
2023-05-10T10:50:04.036Z,12.53
2023-05-10T10:52:33.774Z,13.23
2023-05-10T10:55:02.166Z,12.63
2023-05-10T10:57:30.382Z,11.87
2023-05-10T11:00:29.413Z,12.07
2023-05-10T11:02:59.043Z,11.03
2023-05-10T11:05:37.395Z,11.17
2023-05-10T11:08:22.082Z,11.30
2023-05-10T11:11:04.747Z,13.80
2023-05-10T11:13:33.405Z,11.80
2023-05-10T11:16:00.320Z,12.47
2023-05-10T11:18:28.772Z,12.23
2023-05-10T11:20:59.124Z,13.03
2023-05-10T11:23:30.559Z,12.37
2023-05-10T11:25:56.802Z,12.77
2023-05-10T11:28:27.357Z,12.90
2023-05-10T11:31:17.624Z,13.00
2023-05-10T11:33:50.112Z,13.90
2023-05-10T11:36:18.031Z,13.77
2023-05-10T11:38:45.525Z,13.90
2023-05-10T11:41:12.780Z,14.03
2023-05-10T11:43:39.519Z,14.50
2023-05-10T11:46:06.553Z,14.53
2023-05-10T11:48:33.297Z,13.73
2023-05-10T11:50:59.801Z,14.17
2023-05-10T11:53:27.889Z,14.50
2023-05-10T11:55:55.088Z,14.50
2023-05-10T11:58:22.834Z,12.90
2023-05-10T12:00:49.674Z,13.50
2023-05-10T12:03:16.002Z,13.30
2023-05-10T12:05:42.944Z,14.03
2023-05-10T12:08:13.793Z,13.53
2023-05-10T12:10:40.394Z,12.70
2023-05-10T12:13:11.830Z,13.17
2023-05-10T12:15:38.378Z,12.80
2023-05-10T12:18:06.139Z,12.50
2023-05-10T12:20:32.656Z,14.33
2023-05-10T12:23:02.172Z,14.03
2023-05-10T12:25:32.411Z,14.00
2023-05-10T12:28:00.986Z,13.93
2023-05-10T12:30:28.710Z,14.17
2023-05-10T12:33:00.749Z,13.37
2023-05-10T12:35:26.930Z,13.60
2023-05-10T12:37:53.097Z,13.70
2023-05-10T12:40:19.560Z,15.27
2023-05-10T12:42:46.536Z,15.57
2023-05-10T12:45:13.238Z,14.83
2023-05-10T12:47:43.089Z,15.97
2023-05-10T12:50:11.306Z,15.83
2023-05-10T12:52:37.530Z,18.30
2023-05-10T12:55:04.748Z,19.60
2023-05-10T12:57:31.180Z,19.93
2023-05-10T12:59:57.360Z,20.37
2023-05-10T13:02:23.618Z,20.83
2023-05-10T13:04:51.230Z,20.37
2023-05-10T13:07:17.620Z,19.47
2023-05-10T13:09:43.827Z,20.67
2023-05-10T13:12:10.418Z,18.93
2023-05-10T13:14:36.724Z,20.23
2023-05-10T13:17:03.202Z,18.80
2023-05-10T13:19:29.413Z,19.40
2023-05-10T13:21:56.222Z,19.93
2023-05-10T13:24:22.555Z,19.63
2023-05-10T13:26:48.936Z,18.30
2023-05-10T13:29:23.889Z,20.30
2023-05-10T13:31:57.256Z,19.90
2023-05-10T13:34:24.437Z,20.37
2023-05-10T13:36:51.256Z,21.13
2023-05-10T13:39:22.689Z,20.73
2023-05-10T13:41:49.050Z,19.90
2023-05-10T13:44:18.124Z,20.67
2023-05-10T13:46:44.752Z,20.10
2023-05-10T13:49:11.692Z,19.43
2023-05-10T13:51:37.980Z,18.97
2023-05-10T13:54:07.554Z,18.33
2023-05-10T13:56:34.844Z,18.67
2023-05-10T13:59:01.382Z,17.97
2023-05-10T14:01:27.733Z,18.13
2023-05-10T14:03:54.064Z,18.83
2023-05-10T14:06:20.737Z,17.37
2023-05-10T14:08:47.070Z,16.10
2023-05-10T14:11:13.774Z,16.47
2023-05-10T14:13:41.181Z,14.10
2023-05-10T14:16:07.839Z,11.23
2023-05-10T14:18:34.344Z,11.40
2023-05-10T14:21:00.526Z,10.40
2023-05-10T14:23:28.747Z,10.30
2023-05-10T14:25:55.305Z,9.47
2023-05-10T14:28:22.802Z,9.70
2023-05-10T14:30:50.000Z,10.00
2023-05-10T14:33:17.365Z,10.07
2023-05-10T14:35:43.539Z,11.10
2023-05-10T14:38:10.980Z,10.73
2023-05-10T14:40:37.206Z,10.90
2023-05-10T14:43:03.374Z,10.87
2023-05-10T14:45:29.841Z,11.13
2023-05-10T14:47:57.990Z,10.87
2023-05-10T14:50:35.959Z,10.70
2023-05-10T14:53:03.004Z,10.43
2023-05-10T14:55:29.274Z,10.90
2023-05-10T14:57:55.579Z,9.90
2023-05-10T15:00:22.349Z,10.60
2023-05-10T15:02:49.210Z,11.47
2023-05-10T15:05:16.797Z,10.60
2023-05-10T15:07:43.992Z,11.10
2023-05-10T15:10:10.402Z,9.53
2023-05-10T15:12:36.642Z,10.87
2023-05-10T15:15:03.181Z,10.60
2023-05-10T15:17:29.480Z,10.57
2023-05-10T15:19:55.779Z,10.70
2023-05-10T15:22:22.968Z,9.57
2023-05-10T15:24:50.615Z,10.30
2023-05-10T15:27:16.786Z,9.27
2023-05-10T15:29:42.991Z,9.63
2023-05-10T15:32:09.242Z,9.63
2023-05-10T15:34:37.190Z,9.70
2023-05-10T15:37:03.369Z,9.23
2023-05-10T15:39:33.258Z,7.43
2023-05-10T15:41:59.632Z,4.67
2023-05-10T15:44:26.080Z,7.93
2023-05-10T15:46:52.502Z,7.57
2023-05-10T15:49:18.743Z,8.07
2023-05-10T15:51:45.011Z,7.87
2023-05-10T15:54:11.339Z,6.33
2023-05-10T15:56:38.612Z,7.03
2023-05-10T15:59:07.753Z,7.30
2023-05-10T16:01:34.062Z,6.93
2023-05-10T16:04:00.369Z,8.00
2023-05-10T16:06:26.737Z,7.40
2023-05-10T16:08:54.634Z,6.83
2023-05-10T16:11:21.173Z,7.63
2023-05-10T16:13:48.128Z,7.77
2023-05-10T16:16:14.464Z,8.37
2023-05-10T16:18:41.028Z,8.43
2023-05-10T16:21:07.312Z,7.57
2023-05-10T16:23:33.545Z,8.30
2023-05-10T16:25:59.949Z,8.20
2023-05-10T16:28:26.194Z,8.13
2023-05-10T16:30:53.110Z,7.43
2023-05-10T16:33:19.397Z,7.57
2023-05-10T16:35:45.566Z,7.43
2023-05-10T16:38:14.127Z,7.23
2023-05-10T16:40:40.357Z,7.27
2023-05-10T16:43:07.017Z,7.07
2023-05-10T16:45:33.247Z,5.30
2023-05-10T16:48:00.159Z,5.33
2023-05-10T16:50:26.533Z,4.50
2023-05-10T16:52:52.936Z,4.47
2023-05-10T16:55:20.390Z,3.33
2023-05-10T16:58:04.923Z,3.00
2023-05-10T17:00:31.086Z,3.07
2023-05-10T17:02:57.301Z,2.53
2023-05-10T17:05:24.264Z,2.37
2023-05-10T17:07:50.480Z,2.20
2023-05-10T17:10:17.220Z,2.10
2023-05-10T17:12:43.385Z,1.60
2023-05-10T17:15:10.487Z,1.57
2023-05-10T17:17:36.828Z,1.80
2023-05-10T17:20:04.218Z,1.77
2023-05-10T17:22:31.079Z,1.80
2023-05-10T17:24:57.541Z,2.10
2023-05-10T17:27:23.925Z,1.70
2023-05-10T17:29:50.175Z,2.03
2023-05-10T17:32:16.364Z,1.60
2023-05-10T17:34:42.576Z,1.50
2023-05-10T17:37:09.100Z,2.10
2023-05-10T17:39:37.515Z,1.87
2023-05-10T17:42:05.219Z,1.60
2023-05-10T17:44:31.412Z,2.07
2023-05-10T17:46:57.629Z,2.63
2023-05-10T17:49:23.887Z,2.30
2023-05-10T17:51:50.063Z,2.30
2023-05-10T17:54:16.312Z,2.40
2023-05-10T17:56:43.144Z,2.17
2023-05-10T17:59:09.404Z,1.80
2023-05-10T18:01:35.601Z,1.70
2023-05-10T18:04:01.847Z,2.07
2023-05-10T18:06:28.308Z,2.50
2023-05-10T18:08:55.282Z,3.10
2023-05-10T18:11:22.127Z,2.60
2023-05-10T18:13:48.973Z,2.67
2023-05-10T18:16:15.190Z,2.90
2023-05-10T18:18:41.835Z,2.50
2023-05-10T18:21:08.501Z,2.20
2023-05-10T18:23:34.855Z,2.00
2023-05-10T18:26:04.432Z,2.47
2023-05-10T18:28:31.177Z,97.50
2023-05-10T18:30:58.577Z,116.07
2023-05-10T18:33:25.004Z,4.43
2023-05-10T18:35:51.819Z,2.70
2023-05-10T18:38:18.833Z,2.20
2023-05-10T18:40:46.983Z,2.60
2023-05-10T18:43:13.143Z,2.17
2023-05-10T18:45:39.372Z,2.43
2023-05-10T18:48:07.034Z,2.30
2023-05-10T18:50:33.238Z,2.40
2023-05-10T18:52:59.611Z,2.53
2023-05-10T18:55:26.991Z,2.23
2023-05-10T18:57:53.308Z,2.27
2023-05-10T19:00:19.730Z,2.57
2023-05-10T19:02:46.583Z,2.10
2023-05-10T19:05:14.634Z,2.37
2023-05-10T19:07:43.023Z,2.40
2023-05-10T19:10:10.633Z,2.50
2023-05-10T19:12:36.990Z,2.10
2023-05-10T19:15:03.530Z,2.00
2023-05-10T19:17:31.285Z,2.60
2023-05-10T19:19:58.470Z,2.20
2023-05-10T19:22:43.606Z,2.43
2023-05-10T19:25:16.373Z,2.00
2023-05-10T19:27:42.980Z,2.50
2023-05-10T19:30:09.855Z,2.40
2023-05-10T19:32:36.501Z,2.60
2023-05-10T19:35:03.559Z,2.37
2023-05-10T19:37:30.436Z,2.83
2023-05-10T19:39:56.802Z,3.47
2023-05-10T19:42:23.124Z,3.60
2023-05-10T19:44:49.869Z,3.90
2023-05-10T19:47:16.365Z,3.80
2023-05-10T19:49:42.879Z,4.37
2023-05-10T19:52:11.490Z,4.70
2023-05-10T19:54:38.605Z,4.80
2023-05-10T19:57:04.946Z,4.30
2023-05-10T19:59:31.272Z,4.70
2023-05-10T20:01:57.798Z,4.63
2023-05-10T20:04:23.954Z,4.27
2023-05-10T20:06:50.161Z,5.30
2023-05-10T20:09:16.432Z,4.73
2023-05-10T20:11:43.281Z,4.77
2023-05-10T20:14:09.623Z,5.47
2023-05-10T20:16:36.057Z,5.10
2023-05-10T20:19:02.406Z,5.00
2023-05-10T20:21:28.602Z,5.10
2023-05-10T20:23:54.955Z,5.10
2023-05-10T20:26:21.561Z,5.40
2023-05-10T20:28:51.615Z,5.50
2023-05-10T20:31:17.921Z,5.47
2023-05-10T20:33:44.298Z,5.10
2023-05-10T20:36:10.485Z,5.70
2023-05-10T20:38:36.669Z,6.20
2023-05-10T20:41:02.831Z,6.27
2023-05-10T20:43:29.090Z,5.77
2023-05-10T20:45:56.155Z,6.93
2023-05-10T20:48:23.189Z,5.60
2023-05-10T20:50:51.009Z,6.33
2023-05-10T20:53:18.032Z,6.23
2023-05-10T20:55:44.558Z,6.83
2023-05-10T20:58:10.927Z,6.13
2023-05-10T21:00:37.832Z,6.70
2023-05-10T21:03:05.005Z,7.37
2023-05-10T21:05:31.577Z,6.97
2023-05-10T21:07:57.922Z,7.50
2023-05-10T21:10:27.482Z,6.60
2023-05-10T21:12:53.699Z,7.87
2023-05-10T21:15:21.759Z,7.37
2023-05-10T21:17:47.981Z,6.77
2023-05-10T21:20:15.366Z,6.53
2023-05-10T21:22:42.017Z,6.93
2023-05-10T21:25:09.037Z,7.13
2023-05-10T21:27:35.460Z,7.03
2023-05-10T21:30:01.935Z,6.87
2023-05-10T21:32:28.553Z,7.43
2023-05-10T21:34:54.974Z,7.80
2023-05-10T21:37:21.843Z,7.80
2023-05-10T21:39:48.033Z,6.80
2023-05-10T21:42:14.252Z,7.47
2023-05-10T21:44:40.464Z,7.13
2023-05-10T21:47:06.701Z,6.97
2023-05-10T21:49:32.951Z,7.17
2023-05-10T21:51:59.177Z,7.73
2023-05-10T21:54:26.367Z,7.07
2023-05-10T21:56:53.176Z,7.30
2023-05-10T21:59:20.610Z,6.90
2023-05-10T22:01:47.106Z,7.60
2023-05-10T22:04:13.353Z,10.50
2023-05-10T22:06:39.543Z,9.00
2023-05-10T22:09:05.791Z,7.37
2023-05-10T22:11:32.728Z,7.30
2023-05-10T22:13:58.962Z,7.90
2023-05-10T22:16:25.200Z,8.10
2023-05-10T22:18:53.383Z,8.70
2023-05-10T22:21:19.653Z,8.17
2023-05-10T22:23:46.701Z,8.33
2023-05-10T22:26:12.993Z,7.93
2023-05-10T22:28:40.894Z,8.20
2023-05-10T22:31:09.199Z,8.33
2023-05-10T22:33:35.433Z,8.30
2023-05-10T22:36:01.758Z,8.40
2023-05-10T22:38:27.905Z,8.63
2023-05-10T22:40:54.495Z,8.70
2023-05-10T22:43:20.798Z,8.23
2023-05-10T22:45:47.599Z,8.83
2023-05-10T22:48:14.774Z,9.40
2023-05-10T22:50:41.023Z,8.43
2023-05-10T22:53:07.238Z,9.00
2023-05-10T22:55:33.535Z,9.13
2023-05-10T22:58:00.310Z,9.73
2023-05-10T23:00:26.480Z,9.77
2023-05-10T23:02:53.841Z,10.07
2023-05-10T23:05:20.098Z,10.37
2023-05-10T23:07:49.638Z,10.93
2023-05-10T23:10:16.152Z,10.00
2023-05-10T23:12:42.495Z,10.20
2023-05-10T23:15:09.974Z,10.77
2023-05-10T23:17:36.222Z,10.20
2023-05-10T23:20:03.342Z,10.67
2023-05-10T23:22:29.569Z,10.47
2023-05-10T23:24:56.142Z,9.13
2023-05-10T23:27:22.501Z,10.23
2023-05-10T23:29:51.496Z,9.90
2023-05-10T23:32:17.844Z,9.90
2023-05-10T23:34:44.178Z,10.43
2023-05-10T23:37:11.082Z,9.70
2023-05-10T23:39:37.437Z,9.97
2023-05-10T23:42:03.787Z,10.80
2023-05-10T23:44:30.138Z,9.60
2023-05-10T23:46:56.306Z,11.00
2023-05-10T23:49:22.455Z,12.37
2023-05-10T23:51:48.658Z,12.63
2023-05-10T23:54:15.503Z,12.40
2023-05-10T23:56:41.807Z,12.67
2023-05-10T23:59:08.010Z,12.83
